Time;durP1;ratioP1;P1;durP2;ratioP2;P2;SDS_P1;SDS_P2;PMS_P1;PMS_P2;Temp;Humidity;BMP_temperature;BMP_pressure;BME280_temperature;BME280_humidity;BME280_pressure;Samples;Min_cycle;Max_cycle;Signal;HPM_P1;HPM_P2
2021/04/18 00:00:57;;;;;;;6.70;2.38;;;;;;;20.96;nan;103148.63;5053707;28;20399;-58
2021/04/18 00:03:23;;;;;;;3.97;1.60;;;;;;;20.95;nan;103144.16;5051781;28;20025;-58
2021/04/18 00:05:48;;;;;;;3.10;1.65;;;;;;;20.96;nan;103141.28;5053486;28;20025;-58
2021/04/18 00:08:14;;;;;;;4.43;1.80;;;;;;;21.02;nan;103145.38;5053493;28;20021;-58
2021/04/18 00:10:40;;;;;;;4.82;1.80;;;;;;;21.03;nan;103142.50;5053456;28;20376;-58
2021/04/18 00:13:07;;;;;;;4.38;1.35;;;;;;;21.15;nan;103147.88;5053535;28;20494;-58
2021/04/18 00:15:34;;;;;;;2.45;1.48;;;;;;;21.10;nan;103131.88;5053498;28;20032;-58
2021/04/18 00:17:59;;;;;;;4.47;1.48;;;;;;;21.10;nan;103131.03;5053555;28;20025;-58
2021/04/18 00:20:25;;;;;;;6.25;2.25;;;;;;;21.14;nan;103147.03;5053285;28;20357;-58
2021/04/18 00:22:50;;;;;;;4.00;1.55;;;;;;;21.11;nan;103147.28;5051928;28;20384;-58
2021/04/18 00:25:17;;;;;;;4.35;1.63;;;;;;;21.10;nan;103140.09;5059190;28;20491;-58
2021/04/18 00:27:44;;;;;;;5.43;1.90;;;;;;;21.14;nan;103127.88;5068162;28;20021;-58
2021/04/18 00:30:12;;;;;;;4.13;1.63;;;;;;;21.01;nan;103135.44;5053135;28;20361;-58
2021/04/18 00:32:38;;;;;;;4.57;1.55;;;;;;;20.46;nan;103137.44;5053006;28;20047;-58
2021/04/18 00:35:06;;;;;;;4.43;1.73;;;;;;;20.24;nan;103132.03;5052951;28;20388;-58
2021/04/18 00:37:31;;;;;;;5.00;2.17;;;;;;;20.04;nan;103134.56;5052973;28;20350;-58
2021/04/18 00:39:56;;;;;;;3.88;1.48;;;;;;;19.95;nan;103127.13;5053157;28;20025;-58
2021/04/18 00:42:22;;;;;;;3.97;1.70;;;;;;;19.80;nan;103131.13;5052710;28;20021;-58
2021/04/18 00:44:47;;;;;;;3.13;1.60;;;;;;;19.75;nan;103130.66;5052910;28;20028;-58
2021/04/18 00:47:13;;;;;;;3.67;1.75;;;;;;;19.67;nan;103122.22;5052573;28;20021;-58
2021/04/18 00:49:38;;;;;;;4.15;1.80;;;;;;;19.67;nan;103122.22;5051578;28;20025;-59
2021/04/18 00:52:05;;;;;;;4.03;2.03;;;;;;;19.66;nan;103125.97;5052822;28;20071;-59
2021/04/18 00:54:30;;;;;;;4.13;1.65;;;;;;;19.63;nan;103127.06;5054624;28;20043;-58
2021/04/18 00:56:55;;;;;;;3.42;1.67;;;;;;;19.56;nan;103114.03;5072577;28;20041;-59
2021/04/18 00:59:21;;;;;;;5.05;1.65;;;;;;;19.57;nan;103118.50;5072585;28;20055;-59
2021/04/18 01:01:46;;;;;;;4.50;1.77;;;;;;;19.53;nan;103118.72;5072746;28;20152;-58
2021/04/18 01:04:12;;;;;;;5.22;1.63;;;;;;;19.62;nan;103124.44;5072462;28;20134;-58
2021/04/18 01:06:37;;;;;;;4.60;1.90;;;;;;;19.62;nan;103127.19;5072409;28;20038;-59
2021/04/18 01:09:02;;;;;;;5.40;2.20;;;;;;;19.58;nan;103131.16;5072617;28;20515;-58
2021/04/18 01:11:28;;;;;;;6.18;2.25;;;;;;;19.62;nan;103124.44;5072407;28;20017;-59
2021/04/18 01:13:53;;;;;;;4.10;1.85;;;;;;;19.61;nan;103117.25;5072672;28;20051;-59
2021/04/18 01:16:18;;;;;;;4.97;2.30;;;;;;;19.56;nan;103120.38;5072285;28;20367;-59
2021/04/18 01:18:44;;;;;;;3.80;1.63;;;;;;;19.62;nan;103124.44;5072397;28;20063;-59
2021/04/18 01:21:10;;;;;;;4.25;1.70;;;;;;;19.58;nan;103128.44;5072394;28;20029;-58
2021/04/18 01:23:36;;;;;;;4.07;2.08;;;;;;;19.56;nan;103124.97;5072411;28;20515;-59
2021/04/18 01:26:03;;;;;;;6.65;2.05;;;;;;;19.51;nan;103120.72;5057270;28;20033;-58
2021/04/18 01:28:28;;;;;;;7.50;2.03;;;;;;;19.51;nan;103123.44;5040795;28;20113;-59
2021/04/18 01:30:53;;;;;;;5.50;2.25;;;;;;;19.46;nan;103117.47;5032745;28;20467;-59
2021/04/18 01:33:19;;;;;;;5.03;1.73;;;;;;;19.46;nan;103112.00;5032270;28;20487;-59
2021/04/18 01:35:47;;;;;;;6.35;1.98;;;;;;;19.50;nan;103121.72;5032494;28;20022;-58
2021/04/18 01:38:13;;;;;;;5.55;2.60;;;;;;;19.46;nan;103112.00;5032246;28;20033;-58
2021/04/18 01:40:39;;;;;;;4.65;2.10;;;;;;;19.80;nan;103114.75;5032238;28;20461;-59
2021/04/18 01:43:04;;;;;;;4.25;1.60;;;;;;;20.14;nan;103116.41;5030964;28;20120;-59
2021/04/18 01:45:30;;;;;;;3.15;1.98;;;;;;;20.30;nan;103116.00;5032218;28;20025;-59
2021/04/18 01:47:55;;;;;;;4.63;1.40;;;;;;;20.37;nan;103113.63;5032457;28;20067;-59
2021/04/18 01:50:21;;;;;;;4.13;1.65;;;;;;;20.52;nan;103120.56;5032081;28;20029;-59
2021/04/18 01:52:48;;;;;;;4.47;1.88;;;;;;;20.52;nan;103120.56;5032233;28;20037;-58
2021/04/18 01:55:15;;;;;;;5.53;1.70;;;;;;;20.61;nan;103114.28;5046634;28;20044;-59
2021/04/18 01:57:40;;;;;;;3.65;1.60;;;;;;;20.56;nan;103122.00;5056060;28;20024;-58
2021/04/18 02:00:08;;;;;;;3.70;1.60;;;;;;;20.63;nan;103125.94;5056176;28;20024;-59
2021/04/18 02:02:33;;;;;;;4.10;1.60;;;;;;;20.66;nan;103122.97;5055592;28;20052;-58
2021/04/18 02:04:59;;;;;;;4.60;1.58;;;;;;;20.71;nan;103130.75;5056089;28;20102;-58
2021/04/18 02:07:24;;;;;;;3.25;1.65;;;;;;;20.76;nan;103119.44;5055766;28;20043;-59
2021/04/18 02:09:49;;;;;;;4.00;1.67;;;;;;;20.75;nan;103120.44;5055998;28;20029;-59
2021/04/18 02:12:14;;;;;;;3.30;1.48;;;;;;;20.73;nan;103110.50;5055674;28;20047;-59
2021/04/18 02:14:40;;;;;;;3.80;1.65;;;;;;;20.83;nan;103117.91;5055714;28;20017;-58
2021/04/18 02:17:05;;;;;;;3.60;1.45;;;;;;;20.87;nan;103113.91;5055706;28;20369;-58
2021/04/18 02:19:32;;;;;;;5.18;1.83;;;;;;;20.89;nan;103111.91;5055663;28;20024;-59
2021/04/18 02:21:57;;;;;;;4.13;1.67;;;;;;;20.88;nan;103110.16;5067524;28;20047;-58
2021/04/18 02:24:23;;;;;;;3.78;1.73;;;;;;;20.92;nan;103108.88;5060657;28;20021;-58
2021/04/18 02:26:49;;;;;;;3.60;1.65;;;;;;;20.89;nan;103106.44;5055497;28;20594;-59
2021/04/18 02:29:14;;;;;;;3.65;1.70;;;;;;;20.92;nan;103100.69;5055342;28;20051;-58
2021/04/18 02:31:39;;;;;;;4.80;1.85;;;;;;;20.90;nan;103108.16;5055532;28;20104;-59
2021/04/18 02:34:05;;;;;;;3.45;1.52;;;;;;;20.94;nan;103098.69;5055461;28;20013;-59
2021/04/18 02:36:30;;;;;;;5.18;1.75;;;;;;;20.90;nan;103099.97;5055221;28;20025;-58
2021/04/18 02:38:56;;;;;;;5.95;1.90;;;;;;;20.83;nan;103096.03;5055451;28;20112;-58
2021/04/18 02:41:22;;;;;;;3.90;1.65;;;;;;;20.87;nan;103092.91;5055141;28;20025;-59
2021/04/18 02:43:47;;;;;;;3.10;1.38;;;;;;;20.84;nan;103092.31;5055262;28;20037;-59
2021/04/18 02:46:13;;;;;;;5.45;2.00;;;;;;;20.82;nan;103099.75;5055077;28;20031;-59
2021/04/18 02:48:38;;;;;;;6.15;2.15;;;;;;;20.83;nan;103090.56;5055039;28;20086;-58
2021/04/18 02:51:03;;;;;;;3.35;1.70;;;;;;;20.80;nan;103096.28;5057252;28;20418;-59
2021/04/18 02:53:29;;;;;;;3.95;1.65;;;;;;;20.77;nan;103091.09;5054989;28;20016;-58
2021/04/18 02:55:54;;;;;;;4.32;1.73;;;;;;;20.78;nan;103096.41;5054891;28;20051;-58
2021/04/18 02:58:20;;;;;;;4.78;1.45;;;;;;;20.77;nan;103096.56;5054476;28;20086;-59
2021/04/18 03:00:45;;;;;;;3.30;1.58;;;;;;;20.78;nan;103101.03;5054913;28;20233;-59
2021/04/18 03:03:11;;;;;;;3.85;1.70;;;;;;;20.78;nan;103101.88;5054644;28;20052;-59
2021/04/18 03:05:36;;;;;;;5.85;1.90;;;;;;;20.79;nan;103102.75;5053686;28;20412;-58
2021/04/18 03:08:02;;;;;;;5.28;1.83;;;;;;;20.87;nan;103105.69;5055122;28;20033;-59
2021/04/18 03:10:28;;;;;;;4.57;1.80;;;;;;;20.89;nan;103103.69;5054407;28;20039;-59
2021/04/18 03:12:54;;;;;;;5.15;1.92;;;;;;;20.93;nan;103107.88;5054745;28;20017;-59
2021/04/18 03:15:20;;;;;;;4.70;2.33;;;;;;;20.93;nan;103107.88;5054474;28;20020;-59
2021/04/18 03:17:45;;;;;;;6.20;2.55;;;;;;;20.99;nan;103112.81;5054730;28;20027;-59
2021/04/18 03:20:11;;;;;;;3.22;1.70;;;;;;;20.97;nan;103099.28;5054444;28;20028;-59
2021/04/18 03:22:36;;;;;;;4.20;1.70;;;;;;;21.01;nan;103105.38;5071084;28;20036;-59
2021/04/18 03:25:03;;;;;;;4.00;1.67;;;;;;;21.02;nan;103102.50;5074445;28;20028;-59
2021/04/18 03:27:28;;;;;;;3.78;2.10;;;;;;;21.00;nan;103092.69;5071150;28;20073;-59
2021/04/18 03:29:54;;;;;;;4.55;2.00;;;;;;;21.03;nan;103097.88;5054242;28;20372;-59
2021/04/18 03:32:19;;;;;;;4.22;2.10;;;;;;;21.02;nan;103107.09;5054182;28;20017;-59
2021/04/18 03:34:45;;;;;;;3.35;1.27;;;;;;;21.04;nan;103099.63;5053913;28;20363;-59
2021/04/18 03:37:10;;;;;;;5.82;2.15;;;;;;;21.01;nan;103102.63;5054100;28;20420;-59
2021/04/18 03:39:35;;;;;;;3.67;1.50;;;;;;;20.84;nan;103104.09;5054276;28;20032;-59
2021/04/18 03:42:01;;;;;;;3.38;1.30;;;;;;;20.37;nan;103108.16;5054406;28;20029;-59
2021/04/18 03:44:26;;;;;;;4.47;2.10;;;;;;;20.12;nan;103107.47;5053902;28;20060;-59
2021/04/18 03:46:51;;;;;;;5.43;2.17;;;;;;;19.94;nan;103099.97;5053999;28;20029;-59
2021/04/18 03:49:17;;;;;;;5.32;2.10;;;;;;;19.83;nan;103103.59;5053910;28;20031;-59
2021/04/18 03:51:43;;;;;;;5.40;1.95;;;;;;;19.77;nan;103101.38;5065869;28;20028;-59
2021/04/18 03:54:08;;;;;;;3.80;1.83;;;;;;;19.65;nan;103099.63;5073830;28;20375;-59
2021/04/18 03:56:33;;;;;;;6.25;2.10;;;;;;;19.65;nan;103113.28;5073508;28;20064;-58
2021/04/18 03:58:58;;;;;;;5.97;1.80;;;;;;;19.61;nan;103101.75;5073883;28;20370;-59
2021/04/18 04:01:24;;;;;;;2.80;1.52;;;;;;;19.57;nan;103103.00;5073798;28;20017;-59
2021/04/18 04:03:49;;;;;;;4.03;1.73;;;;;;;20.63;nan;103098.59;5073740;28;20021;-58
2021/04/18 04:06:14;;;;;;;3.38;1.40;;;;;;;21.01;nan;103105.38;5065095;28;20067;-59
2021/04/18 04:08:39;;;;;;;4.43;1.98;;;;;;;21.24;nan;103098.75;5053548;28;20028;-59
2021/04/18 04:11:05;;;;;;;4.78;2.25;;;;;;;21.41;nan;103093.63;5053620;28;20087;-59
2021/04/18 04:13:30;;;;;;;3.15;1.65;;;;;;;21.45;nan;103086.88;5053532;28;20032;-59
2021/04/18 04:15:56;;;;;;;3.95;1.88;;;;;;;21.51;nan;103091.81;5053345;28;20017;-59
2021/04/18 04:18:21;;;;;;;6.25;2.20;;;;;;;21.60;nan;103101.91;5051994;28;20025;-59
2021/04/18 04:20:46;;;;;;;3.83;1.80;;;;;;;21.54;nan;103097.88;5053501;28;20427;-59
2021/04/18 04:23:11;;;;;;;4.90;2.20;;;;;;;21.56;nan;103100.47;5053185;28;20040;-59
2021/04/18 04:25:37;;;;;;;3.45;1.33;;;;;;;21.54;nan;103097.00;5053307;28;20029;-59
2021/04/18 04:28:03;;;;;;;4.60;1.80;;;;;;;21.58;nan;103109.41;5045565;28;20017;-59
2021/04/18 04:30:28;;;;;;;4.60;2.15;;;;;;;21.53;nan;103096.16;5033106;28;20029;-59
2021/04/18 04:32:54;;;;;;;2.38;1.50;;;;;;;21.62;nan;103099.91;5033307;28;20071;-59
2021/04/18 04:35:20;;;;;;;4.55;1.83;;;;;;;21.54;nan;103108.81;5034302;28;20032;-59
2021/04/18 04:37:45;;;;;;;2.55;1.58;;;;;;;21.44;nan;103101.56;5053274;28;20099;-59
2021/04/18 04:40:11;;;;;;;6.07;2.50;;;;;;;21.52;nan;103109.97;5053203;28;20451;-59
2021/04/18 04:42:37;;;;;;;5.32;2.10;;;;;;;21.44;nan;103112.50;5052798;28;20028;-58
2021/04/18 04:45:03;;;;;;;3.58;1.88;;;;;;;21.45;nan;103114.25;5053021;28;20030;-59
2021/04/18 04:47:28;;;;;;;5.18;2.10;;;;;;;21.47;nan;103112.22;5052674;28;20578;-59
2021/04/18 04:49:54;;;;;;;5.25;1.83;;;;;;;21.47;nan;103117.69;5052999;28;20028;-59
2021/04/18 04:52:20;;;;;;;5.68;2.60;;;;;;;21.45;nan;103114.25;5048312;28;20068;-59
2021/04/18 04:54:45;;;;;;;4.40;2.30;;;;;;;21.44;nan;103112.50;5032630;28;20037;-59
2021/04/18 04:57:10;;;;;;;4.68;1.85;;;;;;;21.43;nan;103121.72;5032773;28;20021;-59
2021/04/18 04:59:35;;;;;;;4.38;1.80;;;;;;;21.38;nan;103116.69;5032913;28;20380;-59
2021/04/18 05:02:01;;;;;;;3.40;1.42;;;;;;;21.38;nan;103118.53;5038604;28;20025;-59
2021/04/18 05:04:26;;;;;;;5.28;2.10;;;;;;;21.39;nan;103120.28;5052487;28;20025;-59
2021/04/18 05:06:52;;;;;;;3.53;1.85;;;;;;;21.41;nan;103123.75;5051325;28;20380;-59
2021/04/18 05:09:17;;;;;;;3.15;1.70;;;;;;;21.36;nan;103115.09;5052459;28;20029;-60
2021/04/18 05:11:43;;;;;;;4.45;1.63;;;;;;;21.37;nan;103122.28;5052668;28;20411;-59
2021/04/18 05:14:08;;;;;;;4.40;1.95;;;;;;;21.40;nan;103116.53;5052505;28;20029;-59
2021/04/18 05:16:33;;;;;;;5.00;1.90;;;;;;;21.41;nan;103118.25;5052281;28;20375;-59
2021/04/18 05:18:59;;;;;;;2.92;1.48;;;;;;;21.45;nan;103108.78;5052537;28;20021;-59
2021/04/18 05:21:24;;;;;;;5.75;2.05;;;;;;;21.43;nan;103108.03;5052480;28;20059;-59
2021/04/18 05:23:50;;;;;;;5.50;2.22;;;;;;;21.45;nan;103114.25;5052437;28;20048;-59
2021/04/18 05:26:15;;;;;;;5.28;2.20;;;;;;;21.48;nan;103113.97;5052195;28;20083;-59
2021/04/18 05:28:40;;;;;;;3.78;1.75;;;;;;;21.47;nan;103106.75;5038546;28;20457;-59
2021/04/18 05:31:06;;;;;;;4.60;1.92;;;;;;;21.47;nan;103106.75;5032416;28;20032;-59
2021/04/18 05:33:31;;;;;;;5.05;2.10;;;;;;;21.45;nan;103115.09;5032426;28;20028;-59
2021/04/18 05:35:57;;;;;;;4.63;1.90;;;;;;;21.48;nan;103108.50;5032465;28;20029;-59
2021/04/18 05:38:22;;;;;;;3.67;1.58;;;;;;;21.45;nan;103106.03;5032230;28;20026;-58
2021/04/18 05:40:48;;;;;;;3.97;2.10;;;;;;;21.35;nan;103108.75;5032264;28;20021;-59
2021/04/18 05:43:13;;;;;;;4.78;2.00;;;;;;;21.38;nan;103113.94;5032113;28;20056;-59
2021/04/18 05:45:39;;;;;;;3.85;2.25;;;;;;;21.42;nan;103114.53;5032357;28;20104;-58
2021/04/18 05:48:05;;;;;;;3.45;1.90;;;;;;;21.38;nan;103113.06;5032262;28;20026;-59
2021/04/18 05:50:30;;;;;;;3.17;1.73;;;;;;;21.39;nan;103114.81;5043749;28;20391;-58
2021/04/18 05:52:55;;;;;;;4.93;1.63;;;;;;;21.27;nan;103114.88;5072277;28;20040;-58
2021/04/18 05:55:21;;;;;;;3.53;1.70;;;;;;;21.30;nan;103122.81;5071820;28;20150;-59
2021/04/18 05:57:46;;;;;;;3.25;1.50;;;;;;;21.27;nan;103117.63;5072287;28;20028;-59
2021/04/18 06:00:12;;;;;;;4.60;1.65;;;;;;;21.26;nan;103124.09;5071910;28;20024;-58
2021/04/18 06:02:37;;;;;;;4.80;1.98;;;;;;;21.29;nan;103118.34;5070665;28;20044;-59
2021/04/18 06:05:03;;;;;;;4.35;2.28;;;;;;;21.26;nan;103110.41;5072090;28;20420;-59
2021/04/18 06:07:28;;;;;;;3.33;1.55;;;;;;;21.14;nan;103133.34;5071984;28;20435;-59
2021/04/18 06:09:54;;;;;;;5.05;1.95;;;;;;;21.18;nan;103132.09;5072227;28;20031;-58
2021/04/18 06:12:19;;;;;;;4.18;1.85;;;;;;;21.18;nan;103123.88;5071833;28;20024;-59
2021/04/18 06:14:45;;;;;;;4.95;1.80;;;;;;;21.24;nan;103126.09;5071983;28;20020;-58
2021/04/18 06:17:10;;;;;;;5.95;2.15;;;;;;;21.14;nan;103116.94;5071875;28;20024;-58
2021/04/18 06:19:35;;;;;;;4.70;1.95;;;;;;;21.14;nan;103119.66;5071987;28;20115;-58
2021/04/18 06:22:00;;;;;;;4.90;1.60;;;;;;;21.13;nan;103115.19;5053217;28;20074;-59
2021/04/18 06:24:26;;;;;;;3.42;1.73;;;;;;;21.15;nan;103113.19;5051701;28;20025;-58
2021/04/18 06:26:51;;;;;;;6.10;2.00;;;;;;;21.17;nan;103122.16;5052070;28;20115;-58
2021/04/18 06:29:16;;;;;;;5.93;2.20;;;;;;;21.09;nan;103121.94;5033696;28;20087;-59
2021/04/18 06:31:43;;;;;;;5.35;2.17;;;;;;;21.16;nan;103120.41;5032239;28;20026;-58
2021/04/18 06:34:09;;;;;;;3.53;1.90;;;;;;;21.14;nan;103116.94;5031832;28;20377;-58
2021/04/18 06:36:34;;;;;;;3.28;1.27;;;;;;;21.10;nan;103118.22;5056113;28;20024;-59
2021/04/18 06:38:59;;;;;;;4.28;1.92;;;;;;;21.08;nan;103117.47;5072021;28;20025;-59
2021/04/18 06:41:25;;;;;;;3.78;1.85;;;;;;;21.01;nan;103113.56;5073501;28;20394;-59
2021/04/18 06:43:51;;;;;;;5.18;1.80;;;;;;;21.00;nan;103098.16;5075299;28;20060;-59
2021/04/18 06:46:19;;;;;;;4.57;1.67;;;;;;;21.01;nan;103099.91;5075116;28;20152;-58
2021/04/18 06:48:49;;;;;;;2.95;1.42;;;;;;;21.02;nan;103101.63;5075067;28;20025;-58
2021/04/18 06:51:18;;;;;;;5.47;1.98;;;;;;;20.98;nan;103097.41;5075094;28;20024;-59
2021/04/18 06:53:45;;;;;;;4.22;1.73;;;;;;;20.98;nan;103089.19;5075192;28;20029;-58
2021/04/18 06:56:11;;;;;;;4.93;1.92;;;;;;;21.00;nan;103098.16;5074786;28;20076;-58
2021/04/18 06:58:36;;;;;;;3.55;1.98;;;;;;;20.95;nan;103094.94;5065601;28;20384;-58
2021/04/18 07:01:02;;;;;;;3.75;1.77;;;;;;;20.94;nan;103098.69;5054942;28;20021;-58
2021/04/18 07:03:27;;;;;;;4.28;2.20;;;;;;;20.90;nan;103092.63;5054681;28;20037;-58
2021/04/18 07:05:57;;;;;;;5.88;2.42;;;;;;;20.94;nan;103093.22;5054918;28;20028;-58
2021/04/18 07:08:27;;;;;;;4.43;1.45;;;;;;;20.98;nan;103092.81;5053146;28;20029;-58
2021/04/18 07:11:13;;;;;;;6.88;2.20;;;;;;;20.98;nan;103094.66;5054846;28;20844;-57
2021/04/18 07:13:40;;;;;;;3.92;2.13;;;;;;;21.06;nan;103088.53;5054775;28;20032;-58
2021/04/18 07:16:24;;;;;;;4.25;1.52;;;;;;;21.02;nan;103090.69;5054645;28;20025;-58
2021/04/18 07:18:50;;;;;;;3.97;1.92;;;;;;;21.06;nan;103083.94;5054533;28;20028;-58
2021/04/18 07:21:15;;;;;;;4.15;1.73;;;;;;;21.05;nan;103074.00;5054451;28;20033;-58
2021/04/18 07:23:41;;;;;;;3.38;1.77;;;;;;;21.10;nan;103077.19;5054527;28;20028;-58
2021/04/18 07:26:21;;;;;;;3.42;1.67;;;;;;;21.02;nan;103079.75;5054399;28;20032;-59
2021/04/18 07:28:46;;;;;;;3.15;1.73;;;;;;;21.07;nan;103082.94;5043406;28;20119;-58
2021/04/18 07:31:11;;;;;;;5.07;2.75;;;;;;;21.01;nan;103086.22;5054225;28;20147;-58
2021/04/18 07:34:16;;;;;;;4.47;1.95;;;;;;;21.05;nan;103089.53;5054456;28;20115;-58
2021/04/18 07:36:43;;;;;;;3.55;1.42;;;;;;;21.07;nan;103082.94;5053940;28;20096;-58
2021/04/18 07:39:11;;;;;;;3.17;1.60;;;;;;;21.07;nan;103077.47;5054208;28;20428;-59
2021/04/18 07:41:42;;;;;;;6.13;2.53;;;;;;;21.09;nan;103078.19;5054207;28;20025;-58
2021/04/18 07:44:14;;;;;;;5.32;1.98;;;;;;;21.05;nan;103082.19;5054039;28;20029;-58
2021/04/18 07:46:42;;;;;;;6.15;2.55;;;;;;;21.00;nan;103084.50;5053971;28;20060;-58
2021/04/18 07:49:09;;;;;;;4.97;1.88;;;;;;;21.01;nan;103080.75;5053936;28;20035;-58
2021/04/18 07:51:34;;;;;;;5.65;2.08;;;;;;;21.00;nan;103077.16;5053689;28;20028;-58
2021/04/18 07:54:00;;;;;;;4.38;2.00;;;;;;;20.91;nan;103082.53;5054036;28;20376;-58
2021/04/18 07:56:25;;;;;;;6.43;2.20;;;;;;;20.97;nan;103082.00;5053689;28;20561;-59
2021/04/18 07:58:51;;;;;;;4.20;1.77;;;;;;;20.96;nan;103088.47;5053786;28;20021;-58
2021/04/18 08:01:16;;;;;;;4.40;1.73;;;;;;;20.96;nan;103080.25;5053623;28;20060;-59
2021/04/18 08:03:43;;;;;;;4.10;1.75;;;;;;;20.92;nan;103078.81;5053833;28;20120;-59
2021/04/18 08:06:10;;;;;;;4.45;1.95;;;;;;;20.94;nan;103074.06;5055814;28;20380;-58
2021/04/18 08:08:51;;;;;;;3.60;1.67;;;;;;;20.94;nan;103066.72;5059313;28;20051;-59
2021/04/18 08:11:19;;;;;;;3.58;1.90;;;;;;;20.93;nan;103066.88;5072168;28;20020;-58
2021/04/18 08:13:50;;;;;;;5.07;2.05;;;;;;;20.90;nan;103072.63;5073630;28;20013;-58
2021/04/18 08:16:31;;;;;;;5.72;2.47;;;;;;;20.84;nan;103064.97;5073372;28;20027;-58
2021/04/18 08:19:08;;;;;;;3.90;2.15;;;;;;;20.83;nan;103069.56;5073447;28;20032;-58
2021/04/18 08:21:39;;;;;;;4.22;1.70;;;;;;;20.82;nan;103066.94;5073385;28;20020;-59
2021/04/18 08:24:24;;;;;;;4.75;2.28;;;;;;;20.84;nan;103065.81;5073269;28;20472;-58
2021/04/18 08:27:01;;;;;;;5.32;2.17;;;;;;;20.88;nan;103060.94;5073088;28;20531;-58
2021/04/18 08:29:27;;;;;;;4.50;1.98;;;;;;;20.82;nan;103066.94;5053827;28;20020;-58
2021/04/18 08:32:16;;;;;;;3.72;1.95;;;;;;;20.83;nan;103075.03;5053359;28;20457;-59
2021/04/18 08:34:44;;;;;;;3.88;1.98;;;;;;;20.76;nan;103056.56;5052930;28;20488;-59
2021/04/18 08:37:18;;;;;;;4.90;1.88;;;;;;;20.80;nan;103063.47;5067427;28;20499;-58
2021/04/18 08:39:44;;;;;;;;;;;;;;;20.79;nan;103068.06;5053646;28;20020;-59
2021/04/18 08:42:23;;;;;;;4.07;1.73;;;;;;;20.73;nan;103060.41;5052967;28;20314;-59
2021/04/18 08:44:50;;;;;;;4.53;2.30;;;;;;;20.76;nan;103062.00;5052727;28;20037;-59
2021/04/18 08:47:20;;;;;;;6.07;2.15;;;;;;;20.80;nan;103063.47;5052704;28;20021;-58
2021/04/18 08:49:48;;;;;;;3.97;1.67;;;;;;;20.80;nan;103074.41;5053031;28;20070;-59
2021/04/18 08:52:28;;;;;;;4.10;2.15;;;;;;;20.71;nan;103065.16;5052798;28;20024;-58
2021/04/18 08:54:58;;;;;;;4.47;1.73;;;;;;;20.74;nan;103059.41;5052653;28;20510;-59
2021/04/18 08:57:26;;;;;;;4.40;2.55;;;;;;;20.72;nan;103059.56;5052649;28;20538;-59
2021/04/18 08:59:56;;;;;;;3.78;2.13;;;;;;;20.72;nan;103055.97;5052859;28;20036;-59
2021/04/18 09:02:24;;;;;;;6.35;2.25;;;;;;;20.75;nan;103063.88;5052146;28;20033;-58
2021/04/18 09:04:54;;;;;;;3.20;1.92;;;;;;;20.73;nan;103061.28;5052309;28;20376;-58
2021/04/18 09:07:21;;;;;;;7.53;2.33;;;;;;;20.81;nan;103065.19;5047646;28;20053;-59
2021/04/18 09:09:47;;;;;;;5.35;2.05;;;;;;;20.81;nan;103066.06;5032871;28;20025;-59
2021/04/18 09:12:15;;;;;;;4.35;1.92;;;;;;;20.87;nan;103064.69;5032543;28;20117;-58
2021/04/18 09:14:49;;;;;;;6.90;2.63;;;;;;;20.87;nan;103064.69;5032892;28;20104;-58
2021/04/18 09:17:18;;;;;;;5.43;2.10;;;;;;;20.85;nan;103055.75;5031168;28;20366;-59
2021/04/18 09:19:49;;;;;;;5.47;1.90;;;;;;;20.83;nan;103055.03;5032741;28;20055;-59
2021/04/18 09:22:20;;;;;;;4.97;2.38;;;;;;;20.91;nan;103058.81;5032447;28;20021;-59
2021/04/18 09:24:51;;;;;;;4.15;2.08;;;;;;;20.87;nan;103057.34;5032426;28;20033;-59
2021/04/18 09:27:27;;;;;;;5.68;2.53;;;;;;;20.90;nan;103064.41;5033646;28;20025;-59
2021/04/18 09:30:01;;;;;;;5.05;2.10;;;;;;;20.87;nan;103059.22;5052527;28;20029;-59
2021/04/18 09:32:44;;;;;;;;;;;;;;;20.85;nan;103053.03;5052665;28;20024;-58
2021/04/18 09:35:12;;;;;;;4.38;2.08;;;;;;;20.86;nan;103057.50;5052485;28;20359;-59
2021/04/18 09:37:53;;;;;;;4.32;2.05;;;;;;;20.91;nan;103071.59;5052522;28;20410;-59
2021/04/18 09:40:21;;;;;;;3.65;1.75;;;;;;;20.83;nan;103063.22;5052139;28;20033;-58
2021/04/18 09:42:49;;;;;;;4.40;2.28;;;;;;;20.82;nan;103061.47;5052095;28;20031;-59
2021/04/18 09:45:20;;;;;;;4.25;2.17;;;;;;;20.82;nan;103067.81;5052206;28;20511;-59
2021/04/18 09:47:48;;;;;;;5.32;2.40;;;;;;;20.83;100.00;79226.25;5052290;28;20357;-59
2021/04/18 09:50:34;;;;;;;5.28;2.53;;;;;;;20.87;nan;103064.69;5052118;28;20029;-59
2021/04/18 09:53:15;;;;;;;5.03;2.10;;;;;;;20.78;nan;103065.47;5052223;28;20063;-59
2021/04/18 09:56:13;;;;;;;3.95;1.80;;;;;;;20.73;nan;103061.28;5052159;28;20119;-59
2021/04/18 09:58:41;;;;;;;5.90;1.85;;;;;;;20.72;nan;103067.75;5029577;28;20037;-59
2021/04/18 10:01:33;;;;;;;5.65;2.17;;;;;;;20.78;nan;103070.94;5013134;28;20032;-58
2021/04/18 10:03:58;;;;;;;6.30;2.15;;;;;;;20.78;nan;103063.59;5029824;28;20036;-58
2021/04/18 10:06:23;;;;;;;3.25;1.83;;;;;;;20.72;nan;103067.75;5029201;28;20034;-59
2021/04/18 10:09:02;;;;;;;3.83;1.48;;;;;;;20.80;nan;103068.94;5029624;28;20053;-59
2021/04/18 10:11:27;;;;;;;4.13;1.52;;;;;;;20.76;nan;103070.22;5029637;28;20589;-58
2021/04/18 10:13:54;;;;;;;5.22;2.10;;;;;;;20.82;nan;103072.41;5029820;28;20120;-59
2021/04/18 10:16:31;;;;;;;3.70;1.73;;;;;;;20.84;nan;103064.97;5033131;28;20094;-59
2021/04/18 10:19:15;;;;;;;5.95;1.92;;;;;;;20.83;nan;103069.56;5033512;28;20025;-58
2021/04/18 10:21:59;;;;;;;4.93;1.98;;;;;;;20.83;nan;103068.69;5033408;28;20076;-59
2021/04/18 10:24:42;;;;;;;6.13;1.92;;;;;;;20.75;nan;103065.75;5033081;28;20447;-59
2021/04/18 10:27:10;;;;;;;5.30;1.92;;;;;;;20.93;nan;103058.66;5033144;28;20048;-58
2021/04/18 10:29:36;;;;;;;4.55;1.98;;;;;;;20.84;nan;103070.44;5033244;28;20048;-59
2021/04/18 10:32:02;;;;;;;5.15;2.63;;;;;;;20.85;nan;103077.63;5033229;28;20028;-59
2021/04/18 10:34:27;;;;;;;5.85;2.58;;;;;;;20.82;nan;103072.41;5039314;28;20467;-59
2021/04/18 10:36:53;;;;;;;5.10;2.17;;;;;;;20.84;nan;103081.38;5055334;28;20029;-58
2021/04/18 10:39:19;;;;;;;4.28;1.83;;;;;;;20.86;nan;103069.28;5055252;28;20033;-59
2021/04/18 10:41:45;;;;;;;5.07;1.95;;;;;;;20.88;nan;103063.69;5055440;28;20025;-59
2021/04/18 10:44:15;;;;;;;4.60;2.03;;;;;;;20.83;nan;103075.03;5055073;28;20124;-58
2021/04/18 10:46:44;;;;;;;5.05;1.80;;;;;;;20.85;nan;103072.16;5055069;28;20024;-59
2021/04/18 10:49:10;;;;;;;3.88;2.22;;;;;;;20.84;nan;103074.03;5055120;28;20384;-59
2021/04/18 10:51:35;;;;;;;5.68;2.10;;;;;;;20.81;nan;103076.13;5055456;28;20025;-59
2021/04/18 10:54:00;;;;;;;4.75;2.20;;;;;;;20.89;nan;103073.63;5055164;28;20021;-59
2021/04/18 10:56:26;;;;;;;4.90;1.98;;;;;;;20.81;nan;103070.66;5054862;28;20055;-59
2021/04/18 10:58:51;;;;;;;3.88;1.95;;;;;;;20.82;nan;103084.19;5054660;28;20472;-58
2021/04/18 11:01:16;;;;;;;6.10;1.80;;;;;;;20.84;nan;103081.38;5054797;28;20036;-58
2021/04/18 11:03:41;;;;;;;3.28;1.95;;;;;;;20.88;nan;103082.81;5054958;28;20021;-58
2021/04/18 11:06:07;;;;;;;4.63;2.03;;;;;;;20.83;nan;103079.63;5070859;28;20499;-59
2021/04/18 11:08:33;;;;;;;6.60;2.72;;;;;;;20.94;nan;103085.88;5074586;28;20024;-58
2021/04/18 11:10:58;;;;;;;4.65;2.17;;;;;;;20.92;nan;103078.81;5035061;28;20099;-59
2021/04/18 11:13:26;;;;;;;3.15;1.85;;;;;;;21.01;nan;103094.44;5034941;28;20076;-58
2021/04/18 11:15:51;;;;;;;3.90;1.70;;;;;;;20.97;nan;103092.94;5034892;28;20025;-58
2021/04/18 11:18:16;;;;;;;4.03;2.25;;;;;;;20.99;nan;103085.47;5034593;28;20488;-58
2021/04/18 11:20:43;;;;;;;4.65;2.08;;;;;;;20.95;nan;103084.00;5034558;28;20095;-58
2021/04/18 11:23:08;;;;;;;6.15;1.85;;;;;;;20.96;nan;103085.72;5034518;28;20029;-59
2021/04/18 11:25:33;;;;;;;4.85;1.98;;;;;;;20.98;nan;103089.19;5034318;28;20372;-59
2021/04/18 11:27:58;;;;;;;4.97;2.20;;;;;;;20.95;nan;103084.88;5041408;28;20024;-59
2021/04/18 11:30:24;;;;;;;5.53;2.08;;;;;;;20.96;nan;103088.47;5054043;28;20107;-59
2021/04/18 11:32:50;;;;;;;4.82;2.10;;;;;;;20.96;nan;103088.47;5054400;28;20238;-58
2021/04/18 11:35:15;;;;;;;3.47;2.15;;;;;;;20.92;nan;103087.00;5054391;28;20029;-58
2021/04/18 11:37:41;;;;;;;3.47;1.52;;;;;;;20.97;nan;103092.94;5054386;28;20031;-58
2021/04/18 11:40:07;;;;;;;4.45;2.00;;;;;;;20.93;nan;103092.34;5054263;28;20021;-58
2021/04/18 11:42:32;;;;;;;5.10;2.03;;;;;;;20.98;nan;103091.94;5054053;28;20497;-59